SKBO/BOG METAR and TAF weather

Enter ICAO airport designator
Station Type Date Time Source
SKBO METAR 2020/09/22 04:00 UTC NOAA

SKBO 220400Z 36003KT 9999 NSC 08/06 A3041 NOSIG


Station Type Date Time Source
SKBO Decoded METAR 2020/09/22 04:00 UTC NOAA

Bogota / Eldorado, Colombia (SKBO) 04-43N 074-09W 2548M
Sep 22, 2020 - 12:00 AM EDT / 2020.09.22 0400 UTC
Wind: from the N (360 degrees) at 3 MPH (3 KT):0
Visibility: greater than 7 mile(s):0
Temperature: 46 F (8 C)
Dew Point: 42 F (6 C)
Relative Humidity: 87%
Pressure (altimeter): 30.41 in. Hg (1029 hPa)
ob: SKBO 220400Z 36003KT 9999 NSC 08/06 A3041 NOSIG
cycle: 4

Station Type Date Time Source
SKBO TAF 2020/09/22 06:41 UTC NOAA

TAF SKBO 220430Z 2206/2306 VRB02KT 9999 SCT015 PROB40
TEMPO 2208/2213 2000 BR BKN010
BECMG 2214/2216 26012KT
TEMPO 2219/2224 4000 TSRA SCT017CB TX21/2218Z TN06/2210Z

Example: see airport list